If you wish to contribute or participate in the discussions about articles you are invited to join SKYbrary as a registered user

 Actions

Stony Rapids Airport

From SKYbrary Wiki

CYSF
Airport
ICAO: CYSF – IATA: YSF
Summary
Name Stony Rapids Airport
Region North America
Territory Canada CA.gif
Location Stony Rapids, Saskatchewan
Serving Stony Rapids
Elevation 244.145 m
801 ft244.145 m
Coordinates 59° 15' 4.10" N, 105° 50' 29.75" W
Runways
Designator Length Width Surface ROPS
6/24 1539 m5,049.213 ft
30 m98.425 ft
TREATED GR yes/yes


METAR
Observation CYSF 261128Z AUTO 06004KT 5SM BR BKN007 OVC012 05/05 A2936 RMK SLP955
Station Stony Rapids Airport
Date/Time 26 September 2020 11:28:00
Wind direction 60°
Wind speed 04 kts
Lowest cloud amount broken clouds
Temperature 5°C
Dew point 5°C
Humidity 100%
QNH hPa
Weather condition mist

CFIT
Tag(s) Altimeter Temperature Error Correction

Airport serving Stony Rapids community in Saskatchewan, Canada. The airport is located on the southern outskirts of the town.

Climatology

Humid Continental climate (Köppen climate classification Dfc)

Maps

Terrain

Loading map...

Airport Layout

Loading map...


Accidents & Serious Incidents at or in vicinity of CYSF

None on SKYbrary